createdAt,value
2022-10-04T00:00:11.740Z,10.25
2022-10-04T00:00:37.644Z,10.29
2022-10-04T00:00:50.568Z,10.30
2022-10-04T00:01:11.012Z,10.32
2022-10-04T00:01:23.813Z,10.34
2022-10-04T00:01:58.986Z,10.34
2022-10-04T00:02:20.533Z,10.36
2022-10-04T00:02:34.560Z,10.32
2022-10-04T00:02:47.385Z,10.32
2022-10-04T00:03:11.930Z,10.36
2022-10-04T00:03:30.223Z,10.33
2022-10-04T00:03:51.108Z,10.36
2022-10-04T00:04:10.857Z,10.32
2022-10-04T00:04:28.101Z,10.34
2022-10-04T00:04:51.218Z,10.33
2022-10-04T00:05:12.717Z,10.27
2022-10-04T00:05:25.512Z,10.25
2022-10-04T00:05:40.575Z,10.27
2022-10-04T00:05:57.102Z,10.28
2022-10-04T00:06:16.456Z,10.23
2022-10-04T00:06:29.255Z,10.25
2022-10-04T00:06:54.497Z,10.27
2022-10-04T00:07:16.247Z,10.25
2022-10-04T00:07:33.333Z,10.17
2022-10-04T00:07:52.082Z,10.18
2022-10-04T00:08:18.852Z,10.24
2022-10-04T00:08:42.236Z,10.23
2022-10-04T00:09:06.467Z,10.23
2022-10-04T00:09:30.001Z,10.22
2022-10-04T00:10:07.700Z,10.24
2022-10-04T00:10:37.532Z,10.26
2022-10-04T00:10:50.037Z,10.26
2022-10-04T00:11:17.140Z,10.29
2022-10-04T00:11:43.729Z,10.29
2022-10-04T00:11:56.991Z,10.26
2022-10-04T00:12:38.532Z,10.23
2022-10-04T00:12:56.170Z,10.25
2022-10-04T00:13:18.495Z,10.28
2022-10-04T00:13:31.706Z,10.29
2022-10-04T00:13:50.618Z,10.28
2022-10-04T00:14:09.978Z,10.28
2022-10-04T00:14:24.253Z,10.27
2022-10-04T00:14:38.958Z,10.26
2022-10-04T00:14:55.168Z,10.23
2022-10-04T00:15:31.946Z,10.20
2022-10-04T00:15:49.914Z,10.21
2022-10-04T00:16:02.357Z,10.19
2022-10-04T00:16:22.611Z,10.19
2022-10-04T00:16:39.040Z,10.14
2022-10-04T00:16:52.256Z,10.11
2022-10-04T00:17:12.127Z,10.14
2022-10-04T00:17:27.319Z,10.15
2022-10-04T00:17:39.252Z,10.18
2022-10-04T00:18:02.962Z,10.19
2022-10-04T00:18:40.372Z,10.20
2022-10-04T00:19:21.045Z,10.18
2022-10-04T00:19:47.643Z,10.21
2022-10-04T00:19:59.714Z,10.20
2022-10-04T00:20:50.717Z,10.21
2022-10-04T00:21:04.440Z,10.19
2022-10-04T00:21:16.391Z,10.22
2022-10-04T00:22:10.241Z,10.15
2022-10-04T00:22:27.618Z,10.11
2022-10-04T00:23:19.674Z,9.98
2022-10-04T00:23:37.386Z,10.03
2022-10-04T00:23:49.268Z,10.04
2022-10-04T00:24:11.144Z,10.06
2022-10-04T00:24:25.748Z,10.04
2022-10-04T00:24:38.416Z,10.00
2022-10-04T00:25:08.565Z,10.03
2022-10-04T00:25:21.146Z,9.96
2022-10-04T00:25:36.811Z,9.99
2022-10-04T00:25:48.766Z,10.00
2022-10-04T00:26:04.439Z,10.01
2022-10-04T00:26:25.355Z,9.98
2022-10-04T00:26:46.109Z,9.94
2022-10-04T00:27:10.121Z,9.92
2022-10-04T00:27:24.995Z,9.90
2022-10-04T00:27:38.644Z,9.91
2022-10-04T00:28:26.852Z,9.91
2022-10-04T00:28:39.903Z,9.88
2022-10-04T00:28:51.984Z,9.91
2022-10-04T00:29:36.633Z,9.92
2022-10-04T00:30:03.686Z,9.84
2022-10-04T00:30:23.425Z,9.79
2022-10-04T00:30:38.362Z,9.64
2022-10-04T00:31:11.448Z,9.65
2022-10-04T00:31:26.090Z,9.66
2022-10-04T00:32:10.039Z,9.68
2022-10-04T00:32:27.906Z,9.71
2022-10-04T00:32:40.232Z,9.73
2022-10-04T00:33:03.528Z,9.79
2022-10-04T00:33:42.371Z,9.79
2022-10-04T00:34:09.175Z,9.84
2022-10-04T00:34:20.974Z,9.87
2022-10-04T00:34:32.791Z,9.89
2022-10-04T00:34:52.942Z,9.87
2022-10-04T00:35:24.750Z,9.72
2022-10-04T00:35:36.741Z,9.71
2022-10-04T00:35:52.749Z,9.73
2022-10-04T00:36:53.238Z,9.82
2022-10-04T00:37:14.144Z,9.84
2022-10-04T00:37:27.599Z,9.83
2022-10-04T00:38:08.336Z,9.80
2022-10-04T00:38:27.399Z,9.83
2022-10-04T00:38:39.315Z,9.82
2022-10-04T00:39:14.287Z,9.85
2022-10-04T00:39:39.131Z,9.85
2022-10-04T00:40:16.711Z,9.84
2022-10-04T00:40:34.494Z,9.80
2022-10-04T00:40:54.268Z,9.81
2022-10-04T00:41:08.778Z,9.82
2022-10-04T00:41:21.704Z,9.85
2022-10-04T00:41:49.046Z,9.85
2022-10-04T00:42:12.709Z,9.87
2022-10-04T00:42:49.580Z,9.87
2022-10-04T00:43:10.197Z,9.84
2022-10-04T00:43:42.711Z,9.86
2022-10-04T00:43:57.363Z,9.87
2022-10-04T00:44:27.141Z,9.85
2022-10-04T00:44:47.147Z,9.84
2022-10-04T00:45:28.256Z,9.84
2022-10-04T00:45:49.613Z,9.85
2022-10-04T00:46:11.396Z,9.81
2022-10-04T00:46:27.636Z,9.79
2022-10-04T00:46:41.701Z,9.80
2022-10-04T00:46:56.361Z,9.74
2022-10-04T00:47:37.282Z,9.77
2022-10-04T00:47:49.997Z,9.77
2022-10-04T00:48:30.486Z,9.80
2022-10-04T00:48:54.352Z,9.83
2022-10-04T00:49:09.383Z,9.80
2022-10-04T00:49:24.964Z,9.81
2022-10-04T00:49:41.574Z,9.81
2022-10-04T00:50:02.805Z,9.80
2022-10-04T00:50:22.077Z,9.79
2022-10-04T00:50:39.203Z,9.83
2022-10-04T00:51:11.292Z,9.74
2022-10-04T00:51:40.827Z,9.68
2022-10-04T00:52:08.181Z,9.72
2022-10-04T00:52:26.441Z,9.62
2022-10-04T00:52:45.417Z,9.60
2022-10-04T00:53:00.611Z,9.60
2022-10-04T00:53:53.670Z,9.62
2022-10-04T00:54:30.844Z,9.57
2022-10-04T00:54:51.560Z,9.60
2022-10-04T00:55:08.275Z,9.60
2022-10-04T00:55:25.832Z,9.49
2022-10-04T00:55:48.684Z,9.52
2022-10-04T00:56:06.443Z,9.51
2022-10-04T00:57:05.223Z,9.49
2022-10-04T00:57:23.020Z,9.43
2022-10-04T00:57:41.227Z,9.41
2022-10-04T00:57:59.422Z,9.38
2022-10-04T00:58:39.810Z,9.35
2022-10-04T00:58:54.492Z,9.37
2022-10-04T00:59:38.204Z,9.30
2022-10-04T01:00:03.989Z,9.31
2022-10-04T01:00:19.609Z,9.23
2022-10-04T01:00:34.037Z,9.16
2022-10-04T01:00:48.993Z,9.12
2022-10-04T01:01:03.315Z,9.13
2022-10-04T01:01:21.162Z,9.13
2022-10-04T01:01:35.846Z,8.99
2022-10-04T01:01:52.935Z,9.06
2022-10-04T01:02:21.577Z,9.07
2022-10-04T01:02:46.052Z,9.01
2022-10-04T01:03:25.024Z,9.00
2022-10-04T01:03:39.566Z,9.06
2022-10-04T01:03:54.178Z,9.06
2022-10-04T01:04:23.820Z,9.11
2022-10-04T01:04:41.686Z,9.13
2022-10-04T01:05:00.546Z,9.10
2022-10-04T01:05:19.769Z,9.08
2022-10-04T01:05:39.263Z,9.13
2022-10-04T01:05:57.512Z,9.17
2022-10-04T01:06:11.985Z,9.15
2022-10-04T01:06:25.845Z,9.17
2022-10-04T01:06:38.368Z,9.11
2022-10-04T01:06:51.131Z,9.07
2022-10-04T01:07:05.236Z,9.07
2022-10-04T01:07:23.122Z,9.13
2022-10-04T01:07:43.846Z,9.06
2022-10-04T01:08:04.508Z,8.99
2022-10-04T01:08:23.857Z,8.99
2022-10-04T01:08:45.431Z,8.87
2022-10-04T01:09:05.289Z,8.89
2022-10-04T01:09:18.157Z,8.82
2022-10-04T01:09:34.676Z,8.79
2022-10-04T01:09:53.237Z,8.85
2022-10-04T01:10:12.058Z,8.80
2022-10-04T01:10:55.609Z,8.80
2022-10-04T01:11:15.788Z,8.79
2022-10-04T01:11:30.918Z,8.87
2022-10-04T01:11:47.268Z,8.86
2022-10-04T01:12:23.323Z,8.93
2022-10-04T01:12:45.691Z,9.02
2022-10-04T01:13:12.145Z,9.13
2022-10-04T01:13:29.880Z,9.16
2022-10-04T01:13:56.716Z,9.10
2022-10-04T01:14:20.378Z,9.04
2022-10-04T01:14:46.416Z,9.01
2022-10-04T01:15:14.530Z,9.09
2022-10-04T01:15:33.839Z,9.09
2022-10-04T01:16:11.436Z,9.17
2022-10-04T01:16:27.108Z,8.93
2022-10-04T01:16:39.524Z,8.93
2022-10-04T01:16:51.480Z,8.96
2022-10-04T01:17:04.410Z,9.00
2022-10-04T01:17:16.310Z,9.00
2022-10-04T01:17:28.207Z,9.00
2022-10-04T01:17:40.314Z,8.98
2022-10-04T01:18:12.586Z,9.03
2022-10-04T01:18:24.404Z,9.00
2022-10-04T01:18:38.469Z,9.00
2022-10-04T01:18:50.412Z,9.00
2022-10-04T01:19:24.433Z,8.77
2022-10-04T01:19:36.437Z,8.85
2022-10-04T01:19:53.186Z,8.91
2022-10-04T01:20:34.366Z,9.02
2022-10-04T01:20:52.170Z,9.06
2022-10-04T01:21:22.103Z,8.95
2022-10-04T01:21:35.288Z,8.90
2022-10-04T01:21:57.260Z,8.90
2022-10-04T01:22:18.240Z,8.97
2022-10-04T01:22:48.615Z,9.02
2022-10-04T01:23:00.588Z,8.96
2022-10-04T01:23:31.866Z,8.93
2022-10-04T01:24:15.785Z,8.89
2022-10-04T01:24:34.867Z,8.95
2022-10-04T01:24:46.773Z,8.99
2022-10-04T01:24:58.666Z,8.97
2022-10-04T01:25:31.356Z,8.97
2022-10-04T01:25:50.635Z,9.04
2022-10-04T01:26:05.219Z,9.09
2022-10-04T01:26:40.043Z,9.15
2022-10-04T01:26:51.949Z,9.13
2022-10-04T01:27:24.372Z,9.17
2022-10-04T01:27:42.425Z,9.10
2022-10-04T01:27:54.429Z,9.13
2022-10-04T01:28:06.378Z,9.17
2022-10-04T01:28:19.019Z,9.18
2022-10-04T01:28:33.625Z,9.20
2022-10-04T01:28:45.614Z,9.20
2022-10-04T01:29:11.868Z,9.16
2022-10-04T01:29:31.226Z,9.14
2022-10-04T01:29:43.211Z,9.15
2022-10-04T01:29:55.254Z,9.11
2022-10-04T01:30:13.434Z,9.08
2022-10-04T01:30:26.498Z,9.14
2022-10-04T01:30:38.455Z,9.11
2022-10-04T01:30:51.137Z,9.17
2022-10-04T01:31:03.081Z,9.06
2022-10-04T01:31:16.055Z,9.11
2022-10-04T01:31:30.020Z,9.14
2022-10-04T01:31:48.330Z,9.12
2022-10-04T01:32:01.772Z,9.05
2022-10-04T01:32:13.672Z,9.03
2022-10-04T01:32:25.880Z,9.04
2022-10-04T01:32:39.619Z,9.04
2022-10-04T01:32:51.543Z,9.02
2022-10-04T01:33:06.774Z,9.04
2022-10-04T01:33:19.228Z,8.99
2022-10-04T01:33:31.191Z,9.00
2022-10-04T01:33:43.160Z,9.01
2022-10-04T01:33:55.952Z,9.03
2022-10-04T01:34:08.881Z,9.05
2022-10-04T01:34:23.275Z,9.05
2022-10-04T01:34:35.199Z,9.10
2022-10-04T01:34:47.328Z,9.08
2022-10-04T01:34:59.432Z,9.05
2022-10-04T01:35:13.815Z,9.06
2022-10-04T01:35:26.916Z,9.07
2022-10-04T01:35:39.068Z,9.10
2022-10-04T01:35:51.227Z,9.09
2022-10-04T01:36:03.264Z,9.11
2022-10-04T01:36:15.383Z,9.09
2022-10-04T01:36:28.539Z,9.14
2022-10-04T01:36:41.928Z,9.16
2022-10-04T01:36:57.316Z,9.13
2022-10-04T01:37:09.485Z,9.12
2022-10-04T01:37:21.420Z,9.11
2022-10-04T01:37:33.672Z,9.14
2022-10-04T01:37:45.795Z,9.16
2022-10-04T01:37:57.724Z,9.18
2022-10-04T01:38:09.689Z,9.20
2022-10-04T01:38:21.651Z,9.21
2022-10-04T01:38:33.609Z,9.24
2022-10-04T01:38:45.923Z,9.23
2022-10-04T01:38:58.176Z,9.25
2022-10-04T01:39:10.275Z,9.26
2022-10-04T01:39:24.348Z,9.26
2022-10-04T01:39:36.281Z,9.25
2022-10-04T01:39:49.122Z,9.25
2022-10-04T01:40:01.387Z,9.25
2022-10-04T01:40:13.376Z,9.19
2022-10-04T01:40:25.263Z,9.19
2022-10-04T01:40:46.287Z,9.15
2022-10-04T01:41:02.215Z,9.13
2022-10-04T01:41:18.632Z,9.12
2022-10-04T01:41:44.623Z,9.10
2022-10-04T01:41:58.558Z,9.12
2022-10-04T01:42:19.161Z,9.17
2022-10-04T01:42:55.660Z,9.06
2022-10-04T01:43:10.387Z,9.03
2022-10-04T01:43:27.852Z,9.04
2022-10-04T01:43:43.738Z,9.07
2022-10-04T01:44:00.172Z,9.09
2022-10-04T01:44:24.832Z,9.02
2022-10-04T01:44:57.925Z,8.98
2022-10-04T01:45:15.703Z,8.86
2022-10-04T01:45:39.401Z,8.83
2022-10-04T01:45:58.536Z,8.74
2022-10-04T01:46:16.761Z,8.68
2022-10-04T01:46:33.787Z,8.66
2022-10-04T01:46:46.916Z,8.70
2022-10-04T01:47:04.260Z,8.67
2022-10-04T01:47:35.713Z,8.68
2022-10-04T01:48:00.839Z,8.67
2022-10-04T01:48:16.622Z,8.64
2022-10-04T01:48:35.806Z,8.66
2022-10-04T01:48:47.699Z,8.68
2022-10-04T01:49:04.787Z,8.68
2022-10-04T01:49:20.651Z,8.70
2022-10-04T01:49:35.800Z,8.73
2022-10-04T01:49:48.924Z,8.76
2022-10-04T01:50:07.559Z,8.77
2022-10-04T01:50:37.605Z,8.82
2022-10-04T01:51:11.042Z,8.87
2022-10-04T01:51:33.473Z,8.88
2022-10-04T01:51:58.799Z,8.95
2022-10-04T01:52:18.920Z,8.96
2022-10-04T01:52:41.165Z,8.80
2022-10-04T01:53:19.204Z,8.79
2022-10-04T01:53:34.552Z,8.82
2022-10-04T01:53:54.150Z,8.85
2022-10-04T01:54:11.320Z,8.89
2022-10-04T01:54:33.080Z,8.92
2022-10-04T01:55:00.912Z,8.95
2022-10-04T01:55:34.194Z,8.91
2022-10-04T01:55:51.907Z,8.93
2022-10-04T01:56:26.554Z,9.01
2022-10-04T01:56:44.185Z,8.92
2022-10-04T01:57:02.644Z,8.95
2022-10-04T01:57:23.761Z,8.99
2022-10-04T01:57:42.675Z,8.98
2022-10-04T01:58:00.027Z,8.97
2022-10-04T01:58:21.050Z,8.95
2022-10-04T01:58:46.932Z,8.98
2022-10-04T01:59:03.033Z,9.02
2022-10-04T01:59:24.034Z,9.02
2022-10-04T01:59:46.026Z,9.08
2022-10-04T02:00:02.648Z,9.11
2022-10-04T02:00:15.460Z,9.14
2022-10-04T02:00:28.547Z,9.16
2022-10-04T02:01:04.023Z,9.18
2022-10-04T02:01:31.567Z,9.24
2022-10-04T02:01:55.951Z,9.25
2022-10-04T02:02:20.504Z,9.28
2022-10-04T02:02:58.854Z,9.31
2022-10-04T02:03:21.703Z,9.32
2022-10-04T02:03:52.511Z,9.32
2022-10-04T02:04:12.290Z,9.36
2022-10-04T02:04:29.495Z,9.37
2022-10-04T02:04:43.093Z,9.34
2022-10-04T02:04:57.851Z,9.35
2022-10-04T02:05:12.970Z,9.36
2022-10-04T02:05:39.573Z,9.32
2022-10-04T02:05:57.330Z,9.35
2022-10-04T02:06:10.676Z,9.32
2022-10-04T02:06:23.724Z,9.30
2022-10-04T02:06:40.090Z,9.32
2022-10-04T02:06:55.116Z,9.32
2022-10-04T02:07:15.746Z,9.26
2022-10-04T02:07:31.003Z,9.27
2022-10-04T02:07:44.141Z,9.28
2022-10-04T02:07:56.476Z,9.31
2022-10-04T02:08:12.984Z,9.32
2022-10-04T02:08:32.915Z,9.32
2022-10-04T02:08:49.415Z,9.31
2022-10-04T02:09:11.454Z,9.30
2022-10-04T02:09:27.715Z,9.31
2022-10-04T02:09:43.641Z,9.31
2022-10-04T02:09:59.566Z,9.27
2022-10-04T02:10:18.739Z,9.27
2022-10-04T02:10:38.694Z,9.30
2022-10-04T02:10:56.532Z,9.31
2022-10-04T02:11:08.539Z,9.32
2022-10-04T02:11:21.342Z,9.30
2022-10-04T02:11:37.595Z,9.33
2022-10-04T02:11:52.563Z,9.33
2022-10-04T02:12:06.062Z,9.36
2022-10-04T02:12:19.813Z,9.34
2022-10-04T02:12:34.016Z,9.38
2022-10-04T02:12:49.842Z,9.35
2022-10-04T02:13:04.274Z,9.36
2022-10-04T02:13:21.517Z,9.35
2022-10-04T02:13:37.340Z,9.32
2022-10-04T02:13:52.986Z,9.21
2022-10-04T02:14:15.750Z,9.13
2022-10-04T02:14:34.717Z,9.17
2022-10-04T02:14:52.588Z,9.21
2022-10-04T02:15:08.227Z,9.26
2022-10-04T02:15:22.745Z,9.30
2022-10-04T02:15:37.389Z,9.29
2022-10-04T02:15:49.914Z,9.33
2022-10-04T02:16:04.235Z,9.35
2022-10-04T02:16:17.760Z,9.35
2022-10-04T02:16:35.319Z,9.36
2022-10-04T02:16:52.128Z,9.32
2022-10-04T02:17:10.290Z,9.33
2022-10-04T02:17:28.414Z,9.28
2022-10-04T02:17:44.114Z,9.32
2022-10-04T02:17:57.086Z,9.34
2022-10-04T02:18:14.568Z,9.36
2022-10-04T02:18:27.618Z,9.37
2022-10-04T02:18:43.564Z,9.37
2022-10-04T02:18:56.341Z,9.37
2022-10-04T02:19:09.695Z,9.38
2022-10-04T02:19:25.751Z,9.39
2022-10-04T02:19:42.452Z,9.41
2022-10-04T02:19:55.126Z,9.43
2022-10-04T02:20:15.941Z,9.46
2022-10-04T02:20:28.160Z,9.47
2022-10-04T02:20:42.269Z,9.48
2022-10-04T02:20:55.094Z,9.49
2022-10-04T02:21:07.619Z,9.50
2022-10-04T02:21:21.984Z,9.46
2022-10-04T02:21:36.357Z,9.43
2022-10-04T02:21:49.873Z,9.48
2022-10-04T02:22:04.245Z,9.47
2022-10-04T02:22:16.359Z,9.49
2022-10-04T02:22:29.083Z,9.44
2022-10-04T02:22:43.187Z,9.42
2022-10-04T02:23:03.306Z,9.45
2022-10-04T02:23:18.132Z,9.45
2022-10-04T02:23:32.343Z,9.45
2022-10-04T02:23:45.232Z,9.48
2022-10-04T02:23:57.216Z,9.47
2022-10-04T02:24:10.365Z,9.49
2022-10-04T02:24:22.523Z,9.46
2022-10-04T02:24:40.744Z,9.49
2022-10-04T02:24:54.838Z,9.50
2022-10-04T02:25:07.956Z,9.49
2022-10-04T02:25:20.628Z,9.50
2022-10-04T02:25:32.740Z,9.49
2022-10-04T02:25:44.706Z,9.51
2022-10-04T02:25:56.696Z,9.51
2022-10-04T02:26:10.579Z,9.51
2022-10-04T02:26:22.728Z,9.52
2022-10-04T02:26:34.806Z,9.53
2022-10-04T02:26:51.688Z,9.50
2022-10-04T02:27:03.798Z,9.51
2022-10-04T02:27:16.312Z,9.50
2022-10-04T02:27:31.016Z,9.51
2022-10-04T02:27:42.972Z,9.53
2022-10-04T02:27:55.387Z,9.52
2022-10-04T02:28:14.417Z,9.52
2022-10-04T02:28:26.536Z,9.49
2022-10-04T02:28:39.089Z,9.49
2022-10-04T02:28:51.199Z,9.49
2022-10-04T02:29:03.380Z,9.48
2022-10-04T02:29:15.324Z,9.49
2022-10-04T02:29:27.531Z,9.49
2022-10-04T02:29:40.849Z,9.46
2022-10-04T02:29:52.831Z,9.51
2022-10-04T02:30:11.072Z,9.51
2022-10-04T02:30:24.159Z,9.44
2022-10-04T02:30:42.752Z,9.45
2022-10-04T02:31:13.439Z,9.48
2022-10-04T02:31:46.161Z,9.49
2022-10-04T02:32:18.055Z,9.48
2022-10-04T02:32:52.401Z,9.42
2022-10-04T02:33:05.016Z,9.42
2022-10-04T02:33:16.904Z,9.45
2022-10-04T02:33:28.972Z,9.45
2022-10-04T02:33:46.976Z,9.47
2022-10-04T02:34:00.190Z,9.44
2022-10-04T02:34:13.260Z,9.46
2022-10-04T02:34:25.257Z,9.44
2022-10-04T02:34:37.872Z,9.43
2022-10-04T02:34:50.821Z,9.42
2022-10-04T02:35:04.021Z,9.42
2022-10-04T02:35:17.129Z,9.42
2022-10-04T02:35:38.500Z,9.44
2022-10-04T02:35:50.463Z,9.45
2022-10-04T02:36:02.507Z,9.44
2022-10-04T02:36:16.022Z,9.46
2022-10-04T02:36:29.753Z,9.47
2022-10-04T02:36:42.021Z,9.47
2022-10-04T02:36:53.949Z,9.46
2022-10-04T02:37:07.593Z,9.45
2022-10-04T02:37:22.803Z,9.37
2022-10-04T02:37:34.888Z,9.39
2022-10-04T02:37:59.017Z,9.38
2022-10-04T02:38:22.263Z,9.38
2022-10-04T02:38:41.851Z,9.39
2022-10-04T02:39:05.227Z,9.38
2022-10-04T02:39:27.949Z,9.35
2022-10-04T02:39:47.611Z,9.30
2022-10-04T02:40:13.102Z,9.23
2022-10-04T02:40:31.181Z,9.26
2022-10-04T02:41:12.375Z,9.24
2022-10-04T02:41:41.307Z,9.28
2022-10-04T02:42:03.148Z,9.26
2022-10-04T02:42:34.558Z,9.26
2022-10-04T02:43:10.541Z,9.19
2022-10-04T02:43:34.583Z,9.18
2022-10-04T02:43:57.735Z,9.09
2022-10-04T02:44:20.400Z,9.17
2022-10-04T02:44:44.569Z,9.14
2022-10-04T02:45:05.480Z,9.14
2022-10-04T02:45:24.843Z,9.13
2022-10-04T02:45:46.869Z,9.11
2022-10-04T02:46:08.408Z,9.15
2022-10-04T02:46:23.203Z,9.08
2022-10-04T02:47:13.928Z,9.02
2022-10-04T02:47:30.634Z,9.09
2022-10-04T02:47:48.487Z,9.06
2022-10-04T02:48:16.583Z,9.05
2022-10-04T02:48:44.940Z,8.97
2022-10-04T02:48:59.573Z,8.97
2022-10-04T02:49:46.662Z,8.97
2022-10-04T02:50:04.463Z,9.02
2022-10-04T02:50:27.835Z,9.03
2022-10-04T02:50:47.137Z,8.98
2022-10-04T02:51:11.972Z,8.98
2022-10-04T02:51:26.650Z,8.94
2022-10-04T02:51:44.597Z,8.91
2022-10-04T02:52:16.337Z,8.95
2022-10-04T02:52:35.422Z,8.86
2022-10-04T02:52:50.958Z,8.89
2022-10-04T02:53:27.013Z,8.87
2022-10-04T02:53:52.343Z,8.92
2022-10-04T02:54:04.149Z,8.93
2022-10-04T02:54:21.745Z,8.96
2022-10-04T02:54:38.331Z,8.91
2022-10-04T02:55:05.205Z,8.89
2022-10-04T02:55:27.808Z,8.88
2022-10-04T02:55:42.941Z,8.92
2022-10-04T02:55:55.936Z,8.97
2022-10-04T02:56:11.055Z,8.97
2022-10-04T02:56:24.800Z,9.00
2022-10-04T02:56:37.607Z,9.04
2022-10-04T02:56:53.319Z,9.03
2022-10-04T02:57:05.627Z,9.05
2022-10-04T02:57:23.050Z,9.09
2022-10-04T02:57:35.423Z,9.09
2022-10-04T02:57:47.568Z,9.12
2022-10-04T02:58:00.570Z,9.14
2022-10-04T02:58:17.437Z,9.13
2022-10-04T02:58:32.071Z,9.14
2022-10-04T02:58:44.549Z,9.16
2022-10-04T02:59:02.157Z,9.18
2022-10-04T02:59:16.573Z,9.15
2022-10-04T02:59:34.665Z,9.16
2022-10-04T02:59:47.945Z,9.17
2022-10-04T03:00:17.735Z,9.19
2022-10-04T03:00:31.821Z,9.22
2022-10-04T03:00:52.653Z,9.22
2022-10-04T03:01:04.882Z,9.24
2022-10-04T03:01:53.001Z,9.16
2022-10-04T03:02:29.027Z,9.22
2022-10-04T03:02:42.270Z,9.19
2022-10-04T03:03:21.358Z,9.20
2022-10-04T03:03:47.300Z,9.17
2022-10-04T03:03:59.434Z,9.15
2022-10-04T03:04:16.118Z,9.16
2022-10-04T03:04:31.851Z,9.18
2022-10-04T03:04:43.756Z,9.19
2022-10-04T03:05:00.473Z,9.21
2022-10-04T03:05:14.973Z,9.23
2022-10-04T03:05:27.030Z,9.21
2022-10-04T03:05:40.552Z,9.24
2022-10-04T03:06:12.936Z,9.26
2022-10-04T03:06:32.279Z,9.23
2022-10-04T03:06:47.546Z,9.20
2022-10-04T03:07:05.095Z,9.19
2022-10-04T03:07:17.438Z,9.20
2022-10-04T03:07:33.807Z,9.22
2022-10-04T03:07:45.726Z,9.22
2022-10-04T03:07:58.764Z,9.20
2022-10-04T03:08:11.959Z,9.20
2022-10-04T03:08:24.936Z,9.20
2022-10-04T03:08:46.824Z,9.16
2022-10-04T03:09:02.839Z,9.17
2022-10-04T03:09:16.656Z,9.18
2022-10-04T03:09:30.091Z,9.08
2022-10-04T03:09:42.508Z,9.08
2022-10-04T03:09:54.439Z,8.95
2022-10-04T03:10:12.315Z,8.96
2022-10-04T03:10:24.841Z,9.01
2022-10-04T03:10:36.890Z,9.01
2022-10-04T03:10:50.696Z,9.02
2022-10-04T03:11:04.271Z,8.99
2022-10-04T03:11:18.034Z,8.99
2022-10-04T03:11:40.518Z,9.02
2022-10-04T03:11:55.291Z,9.06
2022-10-04T03:12:11.271Z,9.03
2022-10-04T03:12:23.531Z,9.05
2022-10-04T03:12:37.448Z,9.08
2022-10-04T03:12:51.382Z,9.08
2022-10-04T03:13:04.038Z,9.08
2022-10-04T03:13:18.107Z,9.12
2022-10-04T03:13:31.103Z,9.11
2022-10-04T03:13:47.410Z,9.13
2022-10-04T03:14:02.507Z,9.14
2022-10-04T03:14:20.166Z,9.14
2022-10-04T03:14:34.160Z,9.08
2022-10-04T03:14:46.551Z,9.04
2022-10-04T03:14:58.613Z,9.01
2022-10-04T03:15:12.912Z,9.02
2022-10-04T03:15:24.903Z,9.05
2022-10-04T03:15:37.931Z,9.05
2022-10-04T03:15:50.513Z,9.07
2022-10-04T03:16:03.265Z,9.09
2022-10-04T03:16:17.978Z,9.11
2022-10-04T03:16:41.814Z,9.12
2022-10-04T03:16:56.491Z,9.04
2022-10-04T03:17:08.788Z,9.06
2022-10-04T03:17:21.504Z,9.08
2022-10-04T03:17:34.661Z,9.03
2022-10-04T03:17:46.761Z,9.04
2022-10-04T03:18:02.685Z,9.01
2022-10-04T03:18:17.030Z,8.98
2022-10-04T03:18:31.230Z,9.00
2022-10-04T03:18:45.040Z,9.05
2022-10-04T03:18:57.980Z,9.02
2022-10-04T03:19:12.636Z,9.04
2022-10-04T03:19:26.989Z,9.06
2022-10-04T03:19:46.652Z,9.09
2022-10-04T03:20:00.005Z,9.10
2022-10-04T03:20:16.113Z,9.10
2022-10-04T03:20:28.359Z,9.13
2022-10-04T03:20:43.395Z,9.11
2022-10-04T03:20:55.645Z,9.11
2022-10-04T03:21:11.283Z,9.14
2022-10-04T03:21:24.618Z,9.09
2022-10-04T03:21:37.644Z,9.10
2022-10-04T03:21:55.152Z,9.14
2022-10-04T03:22:10.063Z,9.02
2022-10-04T03:22:22.874Z,8.92
2022-10-04T03:22:34.811Z,8.95
2022-10-04T03:22:52.763Z,8.99
2022-10-04T03:23:06.207Z,9.00
2022-10-04T03:23:20.011Z,8.80
2022-10-04T03:23:33.833Z,8.85
2022-10-04T03:23:51.779Z,8.90
2022-10-04T03:24:06.194Z,8.94
2022-10-04T03:24:25.070Z,8.91
2022-10-04T03:24:47.822Z,8.93
2022-10-04T03:25:02.601Z,8.98
2022-10-04T03:25:21.179Z,8.90
2022-10-04T03:25:45.409Z,8.92
2022-10-04T03:26:03.402Z,8.91
2022-10-04T03:26:36.494Z,8.89
2022-10-04T03:26:52.319Z,8.97
2022-10-04T03:27:08.272Z,8.98
2022-10-04T03:27:28.420Z,9.04
2022-10-04T03:27:40.460Z,9.03
2022-10-04T03:27:54.654Z,9.06
2022-10-04T03:28:07.452Z,9.06
2022-10-04T03:28:19.982Z,9.07
2022-10-04T03:28:35.075Z,9.07
2022-10-04T03:28:47.443Z,9.09
2022-10-04T03:29:00.106Z,9.05
2022-10-04T03:29:14.765Z,9.08
2022-10-04T03:29:31.842Z,9.12
2022-10-04T03:29:44.209Z,9.13
2022-10-04T03:29:59.431Z,9.15
2022-10-04T03:30:16.269Z,9.09
2022-10-04T03:30:29.639Z,9.00
2022-10-04T03:30:44.454Z,9.01
2022-10-04T03:30:58.060Z,9.00
2022-10-04T03:31:13.901Z,9.03
2022-10-04T03:31:28.377Z,9.00
2022-10-04T03:31:47.107Z,8.91
2022-10-04T03:32:03.076Z,8.86
2022-10-04T03:32:17.166Z,8.90
2022-10-04T03:32:30.757Z,8.95
2022-10-04T03:32:43.556Z,8.87
2022-10-04T03:32:56.157Z,8.89
2022-10-04T03:33:08.185Z,8.94
2022-10-04T03:33:22.665Z,8.98
2022-10-04T03:33:34.684Z,8.98
2022-10-04T03:33:47.429Z,8.89
2022-10-04T03:33:59.604Z,8.88
2022-10-04T03:34:18.388Z,8.86
2022-10-04T03:34:32.999Z,8.80
2022-10-04T03:34:55.818Z,8.76
2022-10-04T03:35:26.597Z,8.83
2022-10-04T03:35:40.463Z,8.87
2022-10-04T03:35:55.461Z,8.77
2022-10-04T03:36:19.068Z,8.86
2022-10-04T03:36:31.245Z,8.85
2022-10-04T03:36:44.699Z,8.83
2022-10-04T03:37:00.762Z,8.82
2022-10-04T03:37:18.030Z,8.88
2022-10-04T03:37:36.222Z,8.92
2022-10-04T03:37:48.382Z,8.92
2022-10-04T03:38:12.025Z,8.94
2022-10-04T03:38:26.381Z,8.93
2022-10-04T03:38:40.982Z,8.97
2022-10-04T03:38:56.228Z,8.96
2022-10-04T03:39:12.398Z,8.97
2022-10-04T03:39:35.894Z,8.95
2022-10-04T03:39:53.979Z,8.98
2022-10-04T03:40:09.681Z,8.97
2022-10-04T03:40:27.403Z,9.00
2022-10-04T03:40:51.415Z,8.99
2022-10-04T03:41:04.541Z,9.02
2022-10-04T03:41:21.494Z,8.95
2022-10-04T03:41:34.405Z,8.99
2022-10-04T03:41:47.559Z,8.99
2022-10-04T03:42:11.631Z,9.02
2022-10-04T03:42:29.835Z,9.01
2022-10-04T03:42:47.198Z,8.98
2022-10-04T03:43:01.511Z,9.02
2022-10-04T03:43:14.433Z,8.99
2022-10-04T03:43:33.997Z,8.79
2022-10-04T03:43:48.190Z,8.75
2022-10-04T03:44:04.873Z,8.82
2022-10-04T03:44:18.742Z,8.89
2022-10-04T03:44:31.848Z,8.94
2022-10-04T03:44:48.765Z,8.99
2022-10-04T03:45:05.721Z,9.00
2022-10-04T03:45:23.507Z,9.03
2022-10-04T03:45:35.606Z,8.99
2022-10-04T03:45:47.901Z,8.97
2022-10-04T03:46:02.114Z,8.99
2022-10-04T03:46:14.873Z,8.99
2022-10-04T03:46:28.219Z,8.99
2022-10-04T03:46:40.838Z,8.96
2022-10-04T03:46:52.709Z,8.98
2022-10-04T03:47:11.145Z,8.98
2022-10-04T03:47:34.271Z,8.91
2022-10-04T03:47:49.446Z,8.92
2022-10-04T03:48:06.507Z,8.97
2022-10-04T03:48:27.808Z,8.98
2022-10-04T03:48:52.227Z,8.96
2022-10-04T03:49:06.030Z,8.99
2022-10-04T03:49:29.856Z,8.99
2022-10-04T03:49:46.196Z,8.98
2022-10-04T03:50:06.908Z,9.01
2022-10-04T03:50:24.668Z,9.05
2022-10-04T03:50:47.001Z,9.01
2022-10-04T03:51:00.210Z,9.03
2022-10-04T03:51:21.197Z,9.05
2022-10-04T03:51:34.218Z,9.06
2022-10-04T03:51:50.665Z,9.07
2022-10-04T03:52:04.130Z,9.08
2022-10-04T03:52:22.482Z,9.04
2022-10-04T03:52:37.834Z,9.08
2022-10-04T03:52:56.744Z,9.08
2022-10-04T03:53:35.340Z,9.11
2022-10-04T03:53:51.259Z,9.04
2022-10-04T03:54:06.863Z,9.00
2022-10-04T03:54:27.800Z,8.93
2022-10-04T03:54:40.347Z,8.96
2022-10-04T03:54:57.082Z,8.99
2022-10-04T03:55:15.066Z,8.97
2022-10-04T03:55:38.741Z,8.89
2022-10-04T03:55:52.184Z,8.91
2022-10-04T03:56:13.316Z,8.89
2022-10-04T03:56:35.172Z,8.93
2022-10-04T03:56:47.781Z,8.83
2022-10-04T03:57:01.920Z,8.89
2022-10-04T03:57:13.921Z,8.79
2022-10-04T03:57:26.019Z,8.70
2022-10-04T03:57:52.255Z,8.74
2022-10-04T03:58:06.484Z,8.77
2022-10-04T03:58:19.554Z,8.79
2022-10-04T03:58:31.939Z,8.82
2022-10-04T03:58:45.585Z,8.67
2022-10-04T03:58:58.685Z,8.75
2022-10-04T03:59:15.844Z,8.78
2022-10-04T03:59:28.719Z,8.82
2022-10-04T03:59:43.175Z,8.80
2022-10-04T03:59:56.392Z,8.85
2022-10-04T04:00:09.437Z,8.82
2022-10-04T04:00:21.852Z,8.85
2022-10-04T04:00:40.106Z,8.73
2022-10-04T04:01:11.988Z,8.65
2022-10-04T04:01:36.405Z,8.69
2022-10-04T04:02:01.252Z,8.74
2022-10-04T04:02:27.395Z,8.74
2022-10-04T04:02:47.113Z,8.79
2022-10-04T04:03:03.379Z,8.85
2022-10-04T04:03:20.365Z,8.83
2022-10-04T04:03:45.970Z,8.86
2022-10-04T04:04:05.441Z,8.70
2022-10-04T04:04:24.600Z,8.69
2022-10-04T04:04:42.032Z,8.78
2022-10-04T04:05:16.592Z,8.88
2022-10-04T04:05:35.446Z,8.93
2022-10-04T04:05:57.033Z,8.95
2022-10-04T04:06:16.396Z,8.99